Time,TemperatureF,DewpointF,PressureIn,WindDirection,WindDirectionDegrees,WindSpeedMPH,WindSpeedGustMPH,Humidity,HourlyPrecipIn,Conditions,Clouds,dailyrainin,SoftwareType,DateUTC
2013-02-16 00:00:00,31.5,27.2,30.02,ESE,102,2.0,2.0,84,0.00,,SKC,0.00,VWS V14.01,2013-02-16 05:00:00,
2013-02-16 00:05:00,31.5,27.2,30.02,East,94,1.0,1.0,84,0.00,,SKC,0.00,VWS V14.01,2013-02-16 05:05:00,
2013-02-16 00:10:00,31.4,26.8,30.02,East,94,2.0,5.0,83,0.00,,SKC,0.00,VWS V14.01,2013-02-16 05:10:00,
2013-02-16 00:15:00,31.3,26.8,30.02,East,95,0.0,1.0,83,0.00,,SKC,0.00,VWS V14.01,2013-02-16 05:15:00,
2013-02-16 00:20:00,31.3,26.8,30.02,East,95,1.0,1.0,83,0.00,,SKC,0.00,VWS V14.01,2013-02-16 05:20:00,
2013-02-16 00:23:00,31.3,26.8,30.02,East,95,0.0,0.0,83,0.00,,SKC,0.00,VWS V14.01,2013-02-16 05:23:00,
2013-02-16 00:28:00,31.2,26.4,30.02,SE,126,2.0,2.0,82,0.00,,SKC,0.00,VWS V14.01,2013-02-16 05:28:00,
2013-02-16 00:33:00,31.2,26.6,30.02,SE,125,1.0,2.0,83,0.00,,SKC,0.00,VWS V14.01,2013-02-16 05:33:00,
2013-02-16 00:38:00,31.2,26.4,30.02,SE,125,1.0,1.0,82,0.00,,SKC,0.00,VWS V14.01,2013-02-16 05:38:00,
2013-02-16 00:43:00,31.2,26.1,30.02,East,85,0.0,0.0,81,0.00,,SKC,0.00,VWS V14.01,2013-02-16 05:43:00,
2013-02-16 00:48:00,31.2,26.1,30.02,East,86,0.0,0.0,81,0.00,,SKC,0.00,VWS V14.01,2013-02-16 05:48:00,
2013-02-16 00:53:00,31.2,26.1,30.01,ESE,108,1.0,2.0,81,0.00,,SKC,0.00,VWS V14.01,2013-02-16 05:53:00,
2013-02-16 00:58:00,31.2,26.1,30.01,ESE,108,2.0,2.0,81,0.00,,SKC,0.00,VWS V14.01,2013-02-16 05:58:00,
2013-02-16 01:02:00,31.2,26.1,30.01,ESE,107,2.0,3.0,81,0.00,,SKC,0.00,VWS V14.01,2013-02-16 06:02:00,
2013-02-16 01:07:00,31.1,26.0,30.01,ESE,107,0.0,0.0,81,0.00,,SKC,0.00,VWS V14.01,2013-02-16 06:07:00,
2013-02-16 01:12:00,31.1,26.0,30.01,ESE,108,0.0,0.0,81,0.00,,SKC,0.00,VWS V14.01,2013-02-16 06:12:00,
2013-02-16 01:17:00,31.1,25.7,30.00,ESE,108,1.0,2.0,80,0.00,,SKC,0.00,VWS V14.01,2013-02-16 06:17:00,
2013-02-16 01:22:00,31.1,25.7,30.00,ESE,107,2.0,2.0,80,0.00,,SKC,0.00,VWS V14.01,2013-02-16 06:22:00,
2013-02-16 01:27:00,31.2,26.1,30.00,ESE,107,0.0,0.0,81,0.00,,SKC,0.00,VWS V14.01,2013-02-16 06:27:00,
2013-02-16 01:32:00,31.1,25.0,30.00,ESE,107,2.0,3.0,78,0.00,,SKC,0.00,VWS V14.01,2013-02-16 06:32:00,
2013-02-16 01:37:00,31.1,25.4,30.00,ESE,107,0.0,0.0,79,0.00,,SKC,0.00,VWS V14.01,2013-02-16 06:37:00,
2013-02-16 01:42:00,31.1,25.4,30.00,ESE,107,1.0,1.0,79,0.00,,SKC,0.00,VWS V14.01,2013-02-16 06:42:00,
2013-02-16 01:47:00,31.1,24.8,29.99,ESE,110,0.0,0.0,77,0.00,,SKC,0.00,VWS V14.01,2013-02-16 06:47:00,
2013-02-16 01:52:00,31.1,24.4,29.99,ESE,111,0.0,0.0,76,0.00,,SKC,0.00,VWS V14.01,2013-02-16 06:52:00,
2013-02-16 01:57:00,31.1,23.8,29.99,ESE,111,0.0,0.0,74,0.00,,SKC,0.00,VWS V14.01,2013-02-16 06:57:00,
2013-02-16 02:02:00,31.1,24.1,29.99,ESE,110,0.0,0.0,75,0.00,,SKC,0.00,VWS V14.01,2013-02-16 07:02:00,
2013-02-16 02:07:00,31.1,24.1,29.99,ESE,110,3.0,3.0,75,0.00,,SKC,0.00,VWS V14.01,2013-02-16 07:07:00,
2013-02-16 02:12:00,31.1,24.4,29.99,ESE,110,0.0,0.0,76,0.00,,SKC,0.00,VWS V14.01,2013-02-16 07:12:00,
2013-02-16 02:17:00,31.1,24.1,29.98,East,95,0.0,2.0,75,0.00,,SKC,0.00,VWS V14.01,2013-02-16 07:17:00,
2013-02-16 02:22:00,31.1,24.1,29.98,East,95,0.0,0.0,75,0.00,,SKC,0.00,VWS V14.01,2013-02-16 07:22:00,
2013-02-16 02:27:00,31.1,24.1,29.98,East,95,0.0,0.0,75,0.00,,SKC,0.00,VWS V14.01,2013-02-16 07:27:00,
2013-02-16 02:32:00,31.1,24.8,29.98,East,95,0.0,0.0,77,0.00,,SKC,0.00,VWS V14.01,2013-02-16 07:32:00,
2013-02-16 02:37:00,31.0,24.6,29.97,East,95,0.0,1.0,77,0.00,,SKC,0.00,VWS V14.01,2013-02-16 07:37:00,
2013-02-16 02:42:00,31.0,24.3,29.97,East,95,0.0,0.0,76,0.00,,SKC,0.00,VWS V14.01,2013-02-16 07:42:00,
2013-02-16 02:47:00,30.9,24.2,29.97,East,95,1.0,2.0,76,0.00,,SKC,0.00,VWS V14.01,2013-02-16 07:47:00,
2013-02-16 02:52:00,30.8,24.5,29.97,East,95,2.0,3.0,77,0.00,,SKC,0.00,VWS V14.01,2013-02-16 07:52:00,
2013-02-16 02:57:00,30.8,24.5,29.97,East,95,0.0,0.0,77,0.00,,SKC,0.00,VWS V14.01,2013-02-16 07:57:00,
2013-02-16 03:02:00,30.7,24.7,29.97,East,95,0.0,1.0,78,0.00,,SKC,0.00,VWS V14.01,2013-02-16 08:02:00,
2013-02-16 03:07:00,30.6,24.6,29.96,East,95,0.0,0.0,78,0.00,,SKC,0.00,VWS V14.01,2013-02-16 08:07:00,
2013-02-16 03:12:00,30.5,24.8,29.96,East,95,0.0,0.0,79,0.00,,SKC,0.00,VWS V14.01,2013-02-16 08:12:00,
2013-02-16 03:17:00,30.3,24.6,29.96,East,95,0.0,0.0,79,0.00,,SKC,0.00,VWS V14.01,2013-02-16 08:17:00,
2013-02-16 03:22:00,30.1,24.4,29.95,East,95,0.0,0.0,79,0.00,,SKC,0.00,VWS V14.01,2013-02-16 08:22:00,
2013-02-16 03:27:00,29.9,24.5,29.95,East,95,0.0,0.0,80,0.00,,SKC,0.00,VWS V14.01,2013-02-16 08:27:00,
2013-02-16 03:32:00,29.7,24.3,29.95,East,95,0.0,0.0,80,0.00,,SKC,0.00,VWS V14.01,2013-02-16 08:32:00,
2013-02-16 03:37:00,29.6,24.2,29.95,East,95,0.0,0.0,80,0.00,,SKC,0.00,VWS V14.01,2013-02-16 08:37:00,
2013-02-16 03:42:00,29.4,24.0,29.95,East,95,0.0,0.0,80,0.00,,SKC,0.00,VWS V14.01,2013-02-16 08:42:00,
2013-02-16 03:47:00,29.3,24.2,29.95,East,95,0.0,0.0,81,0.00,,SKC,0.00,VWS V14.01,2013-02-16 08:47:00,
2013-02-16 03:52:00,29.2,24.1,29.94,East,95,0.0,0.0,81,0.00,,SKC,0.00,VWS V14.01,2013-02-16 08:52:00,
2013-02-16 03:57:00,29.1,24.0,29.94,ESE,103,0.0,0.0,81,0.00,,SKC,0.00,VWS V14.01,2013-02-16 08:57:00,
2013-02-16 04:02:00,29.1,24.0,29.94,ESE,103,0.0,0.0,81,0.00,,SKC,0.00,VWS V14.01,2013-02-16 09:02:00,
2013-02-16 04:07:00,29.1,23.7,29.94,ESE,103,0.0,1.0,80,0.00,,SKC,0.00,VWS V14.01,2013-02-16 09:07:00,
2013-02-16 04:12:00,29.2,24.1,29.93,ESE,103,0.0,0.0,81,0.00,,SKC,0.00,VWS V14.01,2013-02-16 09:12:00,
2013-02-16 04:17:00,29.2,24.1,29.93,ESE,103,0.0,0.0,81,0.00,,SKC,0.00,VWS V14.01,2013-02-16 09:17:00,
2013-02-16 04:22:00,29.2,24.1,29.93,ESE,103,0.0,0.0,81,0.00,,SKC,0.00,VWS V14.01,2013-02-16 09:22:00,
2013-02-16 04:27:00,29.2,24.1,29.93,ESE,103,0.0,1.0,81,0.00,,SKC,0.00,VWS V14.01,2013-02-16 09:27:00,
2013-02-16 04:32:00,29.3,23.9,29.93,ESE,103,0.0,0.0,80,0.00,,SKC,0.00,VWS V14.01,2013-02-16 09:32:00,
2013-02-16 04:37:00,29.3,23.9,29.93,ESE,103,2.0,2.0,80,0.00,,SKC,0.00,VWS V14.01,2013-02-16 09:37:00,
2013-02-16 04:42:00,29.5,23.8,29.93,ESE,103,2.0,2.0,79,0.00,,SKC,0.00,VWS V14.01,2013-02-16 09:42:00,
2013-02-16 04:47:00,29.5,24.1,29.93,ESE,103,0.0,0.0,80,0.00,,SKC,0.00,VWS V14.01,2013-02-16 09:47:00,
2013-02-16 04:52:00,29.5,24.1,29.93,ESE,103,2.0,2.0,80,0.00,,SKC,0.00,VWS V14.01,2013-02-16 09:52:00,
2013-02-16 04:57:00,29.5,24.1,29.93,ESE,103,0.0,0.0,80,0.00,,SKC,0.00,VWS V14.01,2013-02-16 09:57:00,
2013-02-16 05:02:00,29.5,24.1,29.93,ESE,103,0.0,0.0,80,0.00,,SKC,0.00,VWS V14.01,2013-02-16 10:02:00,
2013-02-16 05:07:00,29.4,24.3,29.93,ESE,103,0.0,0.0,81,0.00,,SKC,0.00,VWS V14.01,2013-02-16 10:07:00,
2013-02-16 05:12:00,29.4,24.0,29.93,ESE,103,0.0,0.0,80,0.00,,SKC,0.00,VWS V14.01,2013-02-16 10:12:00,
2013-02-16 05:17:00,29.4,24.3,29.93,ESE,103,0.0,0.0,81,0.00,,SKC,0.00,VWS V14.01,2013-02-16 10:17:00,
2013-02-16 05:22:00,29.4,24.6,29.93,ESE,103,0.0,0.0,82,0.00,,SKC,0.00,VWS V14.01,2013-02-16 10:22:00,
2013-02-16 05:27:00,29.4,24.3,29.93,ESE,103,0.0,0.0,81,0.00,,SKC,0.00,VWS V14.01,2013-02-16 10:27:00,
2013-02-16 05:32:00,29.4,24.0,29.93,ESE,103,0.0,0.0,80,0.00,,SKC,0.00,VWS V14.01,2013-02-16 10:32:00,
2013-02-16 05:37:00,29.3,23.9,29.93,ESE,103,0.0,0.0,80,0.00,,SKC,0.00,VWS V14.01,2013-02-16 10:37:00,
2013-02-16 05:42:00,29.4,24.3,29.93,ESE,103,0.0,0.0,81,0.00,,SKC,0.00,VWS V14.01,2013-02-16 10:42:00,
2013-02-16 05:47:00,29.4,24.0,29.93,ESE,103,0.0,0.0,80,0.00,,SKC,0.00,VWS V14.01,2013-02-16 10:47:00,
2013-02-16 05:52:00,29.3,23.9,29.93,ESE,103,0.0,0.0,80,0.00,,SKC,0.00,VWS V14.01,2013-02-16 10:52:00,
2013-02-16 05:57:00,29.3,24.2,29.93,ESE,103,0.0,1.0,81,0.00,,SKC,0.00,VWS V14.01,2013-02-16 10:57:00,
2013-02-16 06:02:00,29.3,23.9,29.93,ESE,103,0.0,0.0,80,0.00,,SKC,0.00,VWS V14.01,2013-02-16 11:02:00,
2013-02-16 06:07:00,29.3,23.9,29.93,ESE,103,0.0,0.0,80,0.00,,SKC,0.00,VWS V14.01,2013-02-16 11:07:00,
2013-02-16 06:12:00,29.3,23.9,29.93,ESE,103,0.0,0.0,80,0.00,,SKC,0.00,VWS V14.01,2013-02-16 11:12:00,
2013-02-16 06:17:00,29.3,24.2,29.93,ESE,103,0.0,0.0,81,0.00,,SKC,0.00,VWS V14.01,2013-02-16 11:17:00,
2013-02-16 06:22:00,29.3,24.2,29.93,ESE,103,0.0,0.0,81,0.00,,SKC,0.00,VWS V14.01,2013-02-16 11:22:00,
2013-02-16 06:27:00,29.3,24.2,29.93,ESE,103,0.0,0.0,81,0.00,,SKC,0.00,VWS V14.01,2013-02-16 11:27:00,
2013-02-16 06:32:00,29.2,24.4,29.92,ESE,103,0.0,0.0,82,0.00,,SKC,0.00,VWS V14.01,2013-02-16 11:32:00,
2013-02-16 06:37:00,29.2,24.1,29.92,ESE,103,0.0,0.0,81,0.00,,SKC,0.00,VWS V14.01,2013-02-16 11:37:00,
2013-02-16 06:42:00,29.1,24.3,29.92,ESE,103,0.0,0.0,82,0.00,,SKC,0.00,VWS V14.01,2013-02-16 11:42:00,
2013-02-16 06:47:00,29.1,24.0,29.92,ESE,103,0.0,0.0,81,0.00,,SKC,0.00,VWS V14.01,2013-02-16 11:47:00,
2013-02-16 06:52:00,29.0,23.6,29.92,ESE,103,0.0,0.0,80,0.00,,SKC,0.00,VWS V14.01,2013-02-16 11:52:00,
2013-02-16 06:57:00,29.0,23.9,29.91,ESE,103,0.0,0.0,81,0.00,,SKC,0.00,VWS V14.01,2013-02-16 11:57:00,
2013-02-16 07:02:00,29.0,23.9,29.91,ESE,103,0.0,0.0,81,0.00,,SKC,0.00,VWS V14.01,2013-02-16 12:02:00,
2013-02-16 07:07:00,28.9,23.8,29.91,ESE,103,0.0,0.0,81,0.00,,SKC,0.00,VWS V14.01,2013-02-16 12:07:00,
2013-02-16 07:12:00,28.9,23.8,29.91,ESE,103,1.0,1.0,81,0.00,,SKC,0.00,VWS V14.01,2013-02-16 12:12:00,
2013-02-16 07:17:00,29.0,23.9,29.91,ESE,103,0.0,1.0,81,0.00,,SKC,0.00,VWS V14.01,2013-02-16 12:17:00,
2013-02-16 07:22:00,29.0,23.9,29.91,East,83,5.0,5.0,81,0.00,,SKC,0.00,VWS V14.01,2013-02-16 12:22:00,
2013-02-16 07:27:00,29.0,24.2,29.90,East,83,0.0,1.0,82,0.00,,SKC,0.00,VWS V14.01,2013-02-16 12:27:00,
2013-02-16 07:32:00,29.0,24.2,29.91,East,83,0.0,0.0,82,0.00,,SKC,0.00,VWS V14.01,2013-02-16 12:32:00,
2013-02-16 07:37:00,29.0,24.5,29.91,East,83,1.0,1.0,83,0.00,,SKC,0.00,VWS V14.01,2013-02-16 12:37:00,
2013-02-16 07:42:00,29.0,24.5,29.91,East,83,0.0,0.0,83,0.00,,SKC,0.00,VWS V14.01,2013-02-16 12:42:00,
2013-02-16 07:47:00,29.0,24.8,29.91,East,83,0.0,0.0,84,0.00,,SKC,0.00,VWS V14.01,2013-02-16 12:47:00,
2013-02-16 07:52:00,29.0,24.8,29.91,East,83,0.0,0.0,84,0.00,,SKC,0.00,VWS V14.01,2013-02-16 12:52:00,
2013-02-16 07:57:00,29.0,25.1,29.91,East,83,0.0,0.0,85,0.00,,SKC,0.00,VWS V14.01,2013-02-16 12:57:00,
2013-02-16 08:02:00,29.0,25.1,29.91,East,83,0.0,0.0,85,0.00,,SKC,0.00,VWS V14.01,2013-02-16 13:02:00,
2013-02-16 08:07:00,29.0,25.4,29.91,East,83,1.0,1.0,86,0.00,,SKC,0.00,VWS V14.01,2013-02-16 13:07:00,
2013-02-16 08:12:00,28.9,25.2,29.91,East,83,0.0,1.0,86,0.00,,SKC,0.00,VWS V14.01,2013-02-16 13:12:00,
2013-02-16 08:17:00,28.9,25.2,29.91,East,83,0.0,0.0,86,0.00,,SKC,0.00,VWS V14.01,2013-02-16 13:17:00,
2013-02-16 08:22:00,28.9,25.5,29.91,East,83,0.0,0.0,87,0.00,,SKC,0.00,VWS V14.01,2013-02-16 13:22:00,
2013-02-16 08:27:00,29.0,25.4,29.91,East,83,0.0,0.0,86,0.00,,SKC,0.00,VWS V14.01,2013-02-16 13:27:00,
2013-02-16 08:32:00,29.0,25.4,29.91,East,83,0.0,0.0,86,0.00,,SKC,0.00,VWS V14.01,2013-02-16 13:32:00,
2013-02-16 08:37:00,28.9,25.0,29.91,East,82,0.0,0.0,85,0.00,,SKC,0.00,VWS V14.01,2013-02-16 13:37:00,
2013-02-16 08:42:00,28.8,24.9,29.91,East,82,0.0,0.0,85,0.00,,SKC,0.00,VWS V14.01,2013-02-16 13:42:00,
2013-02-16 08:47:00,28.8,24.9,29.91,East,82,0.0,0.0,85,0.00,,SKC,0.00,VWS V14.01,2013-02-16 13:47:00,
2013-02-16 08:52:00,28.8,25.1,29.91,East,83,0.0,0.0,86,0.00,,SKC,0.00,VWS V14.01,2013-02-16 13:52:00,
2013-02-16 08:57:00,28.8,24.9,29.91,East,83,0.0,2.0,85,0.00,,SKC,0.00,VWS V14.01,2013-02-16 13:57:00,
2013-02-16 09:01:00,28.7,24.5,29.91,East,83,0.0,2.0,84,0.00,,SKC,0.00,VWS V14.01,2013-02-16 14:01:00,
2013-02-16 09:06:00,28.6,24.4,29.91,ESE,104,0.0,1.0,84,0.00,,SKC,0.00,VWS V14.01,2013-02-16 14:06:00,
2013-02-16 09:11:00,28.7,24.8,29.90,ESE,103,1.0,2.0,85,0.00,,SKC,0.00,VWS V14.01,2013-02-16 14:11:00,
2013-02-16 09:16:00,28.6,24.7,29.90,ESE,104,1.0,2.0,85,0.00,,SKC,0.00,VWS V14.01,2013-02-16 14:16:00,
2013-02-16 09:21:00,28.6,24.7,29.90,ESE,109,1.0,1.0,85,0.00,,SKC,0.00,VWS V14.01,2013-02-16 14:21:00,
2013-02-16 09:26:00,28.7,24.5,29.90,ESE,109,0.0,0.0,84,0.00,,SKC,0.00,VWS V14.01,2013-02-16 14:26:00,
2013-02-16 09:31:00,28.8,24.6,29.90,ESE,109,0.0,1.0,84,0.00,,SKC,0.00,VWS V14.01,2013-02-16 14:31:00,
2013-02-16 09:36:00,28.7,24.2,29.90,ESE,110,0.0,0.0,83,0.00,,SKC,0.00,VWS V14.01,2013-02-16 14:36:00,
2013-02-16 09:41:00,28.7,24.2,29.90,ESE,111,0.0,0.0,83,0.00,,SKC,0.00,VWS V14.01,2013-02-16 14:41:00,
2013-02-16 09:46:00,28.8,24.0,29.90,ESE,111,1.0,1.0,82,0.00,,SKC,0.00,VWS V14.01,2013-02-16 14:46:00,
2013-02-16 09:51:00,28.9,23.8,29.90,ESE,113,0.0,0.0,81,0.00,,SKC,0.00,VWS V14.01,2013-02-16 14:51:00,
2013-02-16 09:56:00,29.0,23.3,29.90,ESE,114,1.0,1.0,79,0.00,,SKC,0.00,VWS V14.01,2013-02-16 14:56:00,
2013-02-16 10:01:00,28.9,22.9,29.90,NNE,19,2.0,2.0,78,0.00,,SKC,0.00,VWS V14.01,2013-02-16 15:01:00,
2013-02-16 10:06:00,28.8,23.1,29.90,NNE,12,0.0,1.0,79,0.00,,SKC,0.00,VWS V14.01,2013-02-16 15:06:00,
2013-02-16 10:11:00,28.9,23.2,29.90,North,11,3.0,3.0,79,0.00,,SKC,0.00,VWS V14.01,2013-02-16 15:11:00,
2013-02-16 10:16:00,28.7,22.1,29.90,NNE,17,4.0,4.0,76,0.00,,SKC,0.00,VWS V14.01,2013-02-16 15:16:00,
2013-02-16 10:21:00,28.5,22.5,29.90,North,360,2.0,5.0,78,0.00,,SKC,0.00,VWS V14.01,2013-02-16 15:21:00,
2013-02-16 10:26:00,28.4,22.4,29.90,North,360,3.0,5.0,78,0.00,,SKC,0.00,VWS V14.01,2013-02-16 15:26:00,
2013-02-16 10:31:00,28.4,22.7,29.90,North,360,1.0,4.0,79,0.00,,SKC,0.00,VWS V14.01,2013-02-16 15:31:00,
2013-02-16 10:36:00,28.2,22.8,29.90,North,360,3.0,4.0,80,0.00,,SKC,0.00,VWS V14.01,2013-02-16 15:36:00,
2013-02-16 10:41:00,28.1,22.7,29.90,North,360,0.0,0.0,80,0.00,,SKC,0.00,VWS V14.01,2013-02-16 15:41:00,
2013-02-16 10:46:00,28.2,23.4,29.90,North,360,1.0,1.0,82,0.00,,SKC,0.00,VWS V14.01,2013-02-16 15:46:00,
2013-02-16 10:51:00,28.4,23.0,29.90,North,360,0.0,2.0,80,0.00,,SKC,0.00,VWS V14.01,2013-02-16 15:51:00,
2013-02-16 10:56:00,28.6,23.2,29.90,NNE,24,1.0,2.0,80,0.00,,SKC,0.00,VWS V14.01,2013-02-16 15:56:00,
2013-02-16 11:01:00,28.5,23.4,29.90,SE,125,1.0,1.0,81,0.00,,SKC,0.00,VWS V14.01,2013-02-16 16:01:00,
2013-02-16 11:06:00,28.3,23.8,29.90,ESE,119,2.0,2.0,83,0.00,,SKC,0.00,VWS V14.01,2013-02-16 16:06:00,
2013-02-16 11:11:00,28.1,22.7,29.90,North,360,0.0,0.0,80,0.00,,SKC,0.00,VWS V14.01,2013-02-16 16:11:00,
2013-02-16 11:16:00,28.1,23.3,29.90,North,360,0.0,0.0,82,0.00,,SKC,0.00,VWS V14.01,2013-02-16 16:16:00,
2013-02-16 11:21:00,28.3,23.5,29.90,ESE,119,1.0,1.0,82,0.00,,SKC,0.00,VWS V14.01,2013-02-16 16:21:00,
2013-02-16 11:26:00,28.2,22.2,29.90,NNE,26,4.0,5.0,78,0.00,,SKC,0.00,VWS V14.01,2013-02-16 16:26:00,
2013-02-16 11:31:00,28.0,22.3,29.90,NNE,32,0.0,0.0,79,0.00,,SKC,0.00,VWS V14.01,2013-02-16 16:31:00,
2013-02-16 11:36:00,27.8,22.7,29.90,North,360,1.0,1.0,81,0.00,,SKC,0.00,VWS V14.01,2013-02-16 16:36:00,
2013-02-16 11:41:00,27.7,22.9,29.89,SSW,213,7.0,7.0,82,0.00,,SKC,0.00,VWS V14.01,2013-02-16 16:41:00,
2013-02-16 11:46:00,27.5,22.5,29.90,ENE,64,2.0,2.0,81,0.00,,SKC,0.00,VWS V14.01,2013-02-16 16:46:00,
2013-02-16 11:51:00,27.7,22.6,29.90,ESE,105,1.0,3.0,81,0.00,,SKC,0.00,VWS V14.01,2013-02-16 16:51:00,
2013-02-16 11:56:00,27.9,22.8,29.90,ESE,102,0.0,0.0,81,0.00,,SKC,0.00,VWS V14.01,2013-02-16 16:56:00,
2013-02-16 12:01:00,28.0,22.6,29.90,East,101,0.0,0.0,80,0.00,,SKC,0.00,VWS V14.01,2013-02-16 17:01:00,
2013-02-16 12:06:00,27.9,21.9,29.90,SSE,159,0.0,6.0,78,0.00,,SKC,0.00,VWS V14.01,2013-02-16 17:06:00,
2013-02-16 12:11:00,27.7,22.0,29.90,SSE,148,0.0,3.0,79,0.00,,SKC,0.00,VWS V14.01,2013-02-16 17:11:00,
2013-02-16 12:16:00,27.7,21.8,29.90,NNE,20,1.0,1.0,78,0.00,,SKC,0.00,VWS V14.01,2013-02-16 17:16:00,
2013-02-16 12:21:00,27.6,21.6,29.89,SE,131,3.0,7.0,78,0.00,,SKC,0.00,VWS V14.01,2013-02-16 17:21:00,
2013-02-16 12:26:00,27.3,22.0,29.89,ESE,113,2.0,4.0,80,0.00,,SKC,0.00,VWS V14.01,2013-02-16 17:26:00,
2013-02-16 12:31:00,27.0,21.7,29.89,ESE,117,2.0,5.0,80,0.00,,SKC,0.00,VWS V14.01,2013-02-16 17:31:00,
2013-02-16 12:36:00,26.9,22.1,29.89,NNE,14,0.0,0.0,82,0.00,,SKC,0.00,VWS V14.01,2013-02-16 17:36:00,
2013-02-16 12:41:00,26.8,22.3,29.89,East,98,5.0,5.0,83,0.00,,SKC,0.00,VWS V14.01,2013-02-16 17:41:00,
2013-02-16 12:46:00,26.7,22.5,29.89,East,97,2.0,2.0,84,0.00,,SKC,0.00,VWS V14.01,2013-02-16 17:46:00,
2013-02-16 12:51:00,26.5,22.3,29.88,SE,126,0.0,3.0,84,0.00,,SKC,0.00,VWS V14.01,2013-02-16 17:51:00,
2013-02-16 12:56:00,26.4,22.5,29.88,East,98,2.0,3.0,85,0.00,,SKC,0.00,VWS V14.01,2013-02-16 17:56:00,
2013-02-16 13:01:00,26.2,22.6,29.88,ESE,121,3.0,3.0,86,0.00,,SKC,0.00,VWS V14.01,2013-02-16 18:01:00,
2013-02-16 13:06:00,26.1,22.5,29.88,NNE,18,1.0,1.0,86,0.00,,SKC,0.00,VWS V14.01,2013-02-16 18:06:00,
2013-02-16 13:11:00,26.2,22.9,29.88,NNE,18,0.0,1.0,87,0.00,,SKC,0.00,VWS V14.01,2013-02-16 18:11:00,
2013-02-16 13:16:00,26.1,22.8,29.88,NNE,19,0.0,0.0,87,0.00,,SKC,0.00,VWS V14.01,2013-02-16 18:16:00,
2013-02-16 13:21:00,26.2,22.9,29.88,NNE,19,0.0,2.0,87,0.00,,SKC,0.00,VWS V14.01,2013-02-16 18:21:00,
2013-02-16 13:26:00,26.2,22.9,29.87,NNE,19,0.0,2.0,87,0.00,,SKC,0.00,VWS V14.01,2013-02-16 18:26:00,
2013-02-16 13:31:00,26.2,23.1,29.87,NNE,19,2.0,3.0,88,0.00,,SKC,0.00,VWS V14.01,2013-02-16 18:31:00,
2013-02-16 13:36:00,26.3,23.2,29.87,NNE,19,0.0,1.0,88,0.00,,SKC,0.00,VWS V14.01,2013-02-16 18:36:00,
2013-02-16 13:41:00,26.5,23.4,29.87,NNE,19,2.0,2.0,88,0.00,,SKC,0.00,VWS V14.01,2013-02-16 18:41:00,
2013-02-16 13:46:00,26.6,23.3,29.87,NNE,19,0.0,2.0,87,0.00,,SKC,0.00,VWS V14.01,2013-02-16 18:46:00,
2013-02-16 13:51:00,26.8,22.9,29.87,NNE,19,0.0,0.0,85,0.00,,SKC,0.00,VWS V14.01,2013-02-16 18:51:00,
2013-02-16 13:56:00,26.9,22.4,29.87,SE,142,3.0,3.0,83,0.00,,SKC,0.00,VWS V14.01,2013-02-16 18:56:00,
2013-02-16 14:01:00,27.1,22.1,29.87,SSE,162,0.0,1.0,81,0.00,,SKC,0.00,VWS V14.01,2013-02-16 19:01:00,
2013-02-16 14:06:00,27.3,22.0,29.87,SSE,161,2.0,2.0,80,0.00,,SKC,0.00,VWS V14.01,2013-02-16 19:06:00,
2013-02-16 14:11:00,27.4,20.5,29.87,West,261,0.0,5.0,75,0.00,,SKC,0.00,VWS V14.01,2013-02-16 19:11:00,
2013-02-16 14:16:00,27.4,17.5,29.87,NNE,32,8.0,14.0,66,0.00,,SKC,0.00,VWS V14.01,2013-02-16 19:16:00,
2013-02-16 14:21:00,27.5,16.6,29.87,North,5,0.0,6.0,63,0.00,,SKC,0.00,VWS V14.01,2013-02-16 19:21:00,
2013-02-16 14:26:00,27.7,16.4,29.88,NW,323,7.0,9.0,62,0.00,,SKC,0.00,VWS V14.01,2013-02-16 19:26:00,
2013-02-16 14:31:00,27.9,15.1,29.88,North,360,4.0,6.0,58,0.00,,SKC,0.00,VWS V14.01,2013-02-16 19:31:00,
2013-02-16 14:36:00,28.3,16.2,29.88,North,5,9.0,9.0,60,0.00,,SKC,0.00,VWS V14.01,2013-02-16 19:36:00,
2013-02-16 14:41:00,28.4,15.5,29.87,NE,51,6.0,8.0,58,0.00,,SKC,0.00,VWS V14.01,2013-02-16 19:41:00,
2013-02-16 14:46:00,28.0,14.8,29.88,NE,45,8.0,8.0,57,0.00,,SKC,0.00,VWS V14.01,2013-02-16 19:46:00,
2013-02-16 14:51:00,27.9,14.6,29.88,NNW,336,0.0,6.0,57,0.00,,SKC,0.00,VWS V14.01,2013-02-16 19:51:00,
2013-02-16 14:56:00,27.7,14.5,29.88,North,5,4.0,6.0,57,0.00,,SKC,0.00,VWS V14.01,2013-02-16 19:56:00,
2013-02-16 15:01:00,27.8,14.2,29.88,NNE,28,3.0,4.0,56,0.00,,SKC,0.00,VWS V14.01,2013-02-16 20:01:00,
2013-02-16 15:06:00,27.9,14.2,29.88,NE,53,3.0,5.0,56,0.00,,SKC,0.00,VWS V14.01,2013-02-16 20:06:00,
2013-02-16 15:11:00,27.8,12.9,29.89,NNW,333,3.0,5.0,53,0.00,,SKC,0.00,VWS V14.01,2013-02-16 20:11:00,
2013-02-16 15:16:00,28.3,12.9,29.89,ENE,66,5.0,5.0,52,0.00,,SKC,0.00,VWS V14.01,2013-02-16 20:16:00,
2013-02-16 15:21:00,28.3,12.9,29.89,NW,315,4.0,5.0,52,0.00,,SKC,0.00,VWS V14.01,2013-02-16 20:21:00,
2013-02-16 15:26:00,28.3,12.9,29.89,WNW,296,1.0,2.0,52,0.00,,SKC,0.00,VWS V14.01,2013-02-16 20:26:00,
2013-02-16 15:31:00,28.4,13.9,29.89,WNW,284,3.0,7.0,54,0.00,,SKC,0.00,VWS V14.01,2013-02-16 20:31:00,
2013-02-16 15:36:00,28.3,14.2,29.90,NNE,13,6.0,7.0,55,0.00,,SKC,0.00,VWS V14.01,2013-02-16 20:36:00,
2013-02-16 15:41:00,27.8,12.9,29.90,North,5,13.0,13.0,53,0.00,,SKC,0.00,VWS V14.01,2013-02-16 20:41:00,
2013-02-16 15:46:00,27.3,12.0,29.90,NE,49,8.0,8.0,52,0.00,,SKC,0.00,VWS V14.01,2013-02-16 20:46:00,
2013-02-16 15:51:00,27.7,12.8,29.91,North,355,7.0,8.0,53,0.00,,SKC,0.00,VWS V14.01,2013-02-16 20:51:00,
2013-02-16 15:56:00,27.4,13.8,29.91,NNW,340,2.0,7.0,56,0.00,,SKC,0.00,VWS V14.01,2013-02-16 20:56:00,
2013-02-16 16:01:00,27.1,12.7,29.91,NE,41,10.0,10.0,54,0.00,,SKC,0.00,VWS V14.01,2013-02-16 21:01:00,
2013-02-16 16:06:00,27.1,13.5,29.91,NNE,31,1.0,4.0,56,0.00,,SKC,0.00,VWS V14.01,2013-02-16 21:06:00,
2013-02-16 16:11:00,27.1,12.7,29.91,WNW,301,0.0,1.0,54,0.00,,SKC,0.00,VWS V14.01,2013-02-16 21:11:00,
2013-02-16 16:16:00,27.0,12.6,29.91,North,360,4.0,5.0,54,0.00,,SKC,0.00,VWS V14.01,2013-02-16 21:16:00,
2013-02-16 16:21:00,27.1,13.1,29.92,North,351,0.0,1.0,55,0.00,,SKC,0.00,VWS V14.01,2013-02-16 21:21:00,
2013-02-16 16:26:00,26.9,12.1,29.91,NW,321,5.0,13.0,53,0.00,,SKC,0.00,VWS V14.01,2013-02-16 21:26:00,
2013-02-16 16:31:00,26.8,11.6,29.92,NNW,346,1.0,3.0,52,0.00,,SKC,0.00,VWS V14.01,2013-02-16 21:31:00,
2013-02-16 16:35:00,26.9,11.6,29.92,North,5,0.0,3.0,52,0.00,,SKC,0.00,VWS V14.01,2013-02-16 21:35:00,
2013-02-16 16:40:00,27.0,11.3,29.92,NNE,13,8.0,10.0,51,0.00,,SKC,0.00,VWS V14.01,2013-02-16 21:40:00,
2013-02-16 16:45:00,26.8,11.6,29.92,North,355,8.0,10.0,52,0.00,,SKC,0.00,VWS V14.01,2013-02-16 21:45:00,
2013-02-16 16:50:00,26.7,11.4,29.92,North,9,5.0,6.0,52,0.00,,SKC,0.00,VWS V14.01,2013-02-16 21:50:00,
2013-02-16 16:55:00,26.5,11.7,29.93,NE,42,3.0,7.0,53,0.00,,SKC,0.00,VWS V14.01,2013-02-16 21:55:00,
2013-02-16 17:00:00,26.4,12.0,29.93,NNW,334,5.0,9.0,54,0.00,,SKC,0.00,VWS V14.01,2013-02-16 22:00:00,
2013-02-16 17:05:00,26.5,10.8,29.93,NE,53,5.0,5.0,51,0.00,,SKC,0.00,VWS V14.01,2013-02-16 22:05:00,
2013-02-16 17:10:00,26.3,11.1,29.93,NNE,13,4.0,4.0,52,0.00,,SKC,0.00,VWS V14.01,2013-02-16 22:10:00,
2013-02-16 17:15:00,26.2,11.0,29.94,NE,37,5.0,6.0,52,0.00,,SKC,0.00,VWS V14.01,2013-02-16 22:15:00,
2013-02-16 17:20:00,26.0,11.2,29.94,NNW,348,6.0,7.0,53,0.00,,SKC,0.00,VWS V14.01,2013-02-16 22:20:00,
2013-02-16 17:25:00,25.8,11.9,29.95,NW,309,3.0,3.0,55,0.00,,SKC,0.00,VWS V14.01,2013-02-16 22:25:00,
2013-02-16 17:30:00,25.5,12.4,29.95,NE,40,1.0,6.0,57,0.00,,SKC,0.00,VWS V14.01,2013-02-16 22:30:00,
2013-02-16 17:35:00,25.2,13.3,29.95,ESE,120,3.0,3.0,60,0.00,,SKC,0.00,VWS V14.01,2013-02-16 22:35:00,
2013-02-16 17:40:00,25.0,13.5,29.95,NNW,327,4.0,4.0,61,0.00,,SKC,0.00,VWS V14.01,2013-02-16 22:40:00,
2013-02-16 17:45:00,24.6,13.8,29.95,NW,307,2.0,5.0,63,0.00,,SKC,0.00,VWS V14.01,2013-02-16 22:45:00,
2013-02-16 17:50:00,24.3,13.9,29.95,North,360,8.0,8.0,64,0.00,,SKC,0.00,VWS V14.01,2013-02-16 22:50:00,
2013-02-16 17:55:00,24.1,14.1,29.95,NNW,346,8.0,8.0,65,0.00,,SKC,0.00,VWS V14.01,2013-02-16 22:55:00,
2013-02-16 18:00:00,23.9,13.9,29.95,North,360,4.0,5.0,65,0.00,,SKC,0.00,VWS V14.01,2013-02-16 23:00:00,
2013-02-16 18:05:00,23.8,14.1,29.95,WSW,254,0.0,2.0,66,0.00,,SKC,0.00,VWS V14.01,2013-02-16 23:05:00,
2013-02-16 18:10:00,23.8,13.1,29.95,NNE,31,2.0,2.0,63,0.00,,SKC,0.00,VWS V14.01,2013-02-16 23:10:00,
2013-02-16 18:15:00,23.8,13.4,29.95,NNW,336,7.0,7.0,64,0.00,,SKC,0.00,VWS V14.01,2013-02-16 23:15:00,
2013-02-16 18:20:00,23.9,13.1,29.96,NNW,340,4.0,6.0,63,0.00,,SKC,0.00,VWS V14.01,2013-02-16 23:20:00,
2013-02-16 18:25:00,23.9,12.8,29.96,WNW,283,0.0,0.0,62,0.00,,SKC,0.00,VWS V14.01,2013-02-16 23:25:00,
2013-02-16 18:30:00,23.9,12.8,29.96,NNW,341,1.0,1.0,62,0.00,,SKC,0.00,VWS V14.01,2013-02-16 23:30:00,
2013-02-16 18:35:00,23.9,12.8,29.96,North,355,2.0,4.0,62,0.00,,SKC,0.00,VWS V14.01,2013-02-16 23:35:00,
2013-02-16 18:40:00,24.0,12.9,29.97,NNE,13,6.0,6.0,62,0.00,,SKC,0.00,VWS V14.01,2013-02-16 23:40:00,
2013-02-16 18:45:00,23.9,13.1,29.97,NNE,13,0.0,0.0,63,0.00,,SKC,0.00,VWS V14.01,2013-02-16 23:45:00,
2013-02-16 18:50:00,23.8,14.8,29.97,NNE,12,6.0,6.0,68,0.00,,SKC,0.00,VWS V14.01,2013-02-16 23:50:00,
2013-02-16 18:55:00,23.4,15.7,29.97,NNE,22,0.0,1.0,72,0.00,,SKC,0.00,VWS V14.01,2013-02-16 23:55:00,
2013-02-16 19:00:00,23.1,16.1,29.98,NNE,21,0.0,6.0,74,0.00,,SKC,0.00,VWS V14.01,2013-02-17 00:00:00,
2013-02-16 19:05:00,22.9,16.5,29.98,NNE,21,0.0,4.0,76,0.00,,SKC,0.00,VWS V14.01,2013-02-17 00:05:00,
2013-02-16 19:10:00,22.5,17.3,29.99,NNE,25,3.0,6.0,80,0.00,,SKC,0.00,VWS V14.01,2013-02-17 00:10:00,
2013-02-16 19:15:00,22.1,17.2,29.99,NNE,24,3.0,3.0,81,0.00,,SKC,0.00,VWS V14.01,2013-02-17 00:15:00,
2013-02-16 19:20:00,21.9,17.0,29.99,NNW,345,6.0,6.0,81,0.00,,SKC,0.00,VWS V14.01,2013-02-17 00:20:00,
2013-02-16 19:25:00,21.8,16.9,29.98,NNW,339,0.0,0.0,81,0.00,,SKC,0.00,VWS V14.01,2013-02-17 00:25:00,
2013-02-16 19:30:00,21.6,17.0,29.98,NNW,339,0.0,0.0,82,0.00,,SKC,0.00,VWS V14.01,2013-02-17 00:30:00,
2013-02-16 19:35:00,21.5,17.1,29.98,NNW,338,0.0,0.0,83,0.00,,SKC,0.00,VWS V14.01,2013-02-17 00:35:00,
2013-02-16 19:40:00,21.4,17.0,29.98,NNW,339,0.0,0.0,83,0.00,,SKC,0.00,VWS V14.01,2013-02-17 00:40:00,
2013-02-16 19:45:00,21.5,16.3,29.99,NE,51,4.0,5.0,80,0.00,,SKC,0.00,VWS V14.01,2013-02-17 00:45:00,
2013-02-16 19:50:00,21.7,16.2,29.99,North,9,5.0,5.0,79,0.00,,SKC,0.00,VWS V14.01,2013-02-17 00:50:00,
2013-02-16 19:55:00,21.4,16.8,30.00,NNE,19,4.0,7.0,82,0.00,,SKC,0.00,VWS V14.01,2013-02-17 00:55:00,
2013-02-16 20:00:00,21.1,16.8,30.00,NNE,23,2.0,2.0,83,0.00,,SKC,0.00,VWS V14.01,2013-02-17 01:00:00,
2013-02-16 20:05:00,21.1,17.0,30.01,NNE,23,0.0,2.0,84,0.00,,SKC,0.00,VWS V14.01,2013-02-17 01:05:00,
2013-02-16 20:10:00,21.1,17.3,30.01,NNE,17,1.0,2.0,85,0.00,,SKC,0.00,VWS V14.01,2013-02-17 01:10:00,
2013-02-16 20:15:00,21.0,16.9,30.01,NNE,17,2.0,3.0,84,0.00,,SKC,0.00,VWS V14.01,2013-02-17 01:15:00,
2013-02-16 20:20:00,20.9,16.8,30.01,NNE,17,1.0,2.0,84,0.00,,SKC,0.00,VWS V14.01,2013-02-17 01:20:00,
2013-02-16 20:25:00,20.9,16.8,30.01,NNE,17,2.0,3.0,84,0.00,,SKC,0.00,VWS V14.01,2013-02-17 01:25:00,
2013-02-16 20:30:00,20.9,16.6,30.01,NNE,17,0.0,0.0,83,0.00,,SKC,0.00,VWS V14.01,2013-02-17 01:30:00,
2013-02-16 20:35:00,20.8,16.5,30.01,NNE,17,1.0,1.0,83,0.00,,SKC,0.00,VWS V14.01,2013-02-17 01:35:00,
2013-02-16 20:40:00,20.9,16.3,30.02,NNE,17,2.0,2.0,82,0.00,,SKC,0.00,VWS V14.01,2013-02-17 01:40:00,
2013-02-16 20:45:00,21.0,16.1,30.02,NNE,17,0.0,3.0,81,0.00,,SKC,0.00,VWS V14.01,2013-02-17 01:45:00,
2013-02-16 20:50:00,21.0,16.4,30.02,NNE,17,0.0,0.0,82,0.00,,SKC,0.00,VWS V14.01,2013-02-17 01:50:00,
2013-02-16 20:55:00,21.1,16.5,30.02,NNE,17,0.0,0.0,82,0.00,,SKC,0.00,VWS V14.01,2013-02-17 01:55:00,
2013-02-16 21:00:00,20.9,16.3,30.02,NNE,17,0.0,3.0,82,0.00,,SKC,0.00,VWS V14.01,2013-02-17 02:00:00,
2013-02-16 21:05:00,20.8,15.9,30.02,NNE,17,2.0,2.0,81,0.00,,SKC,0.00,VWS V14.01,2013-02-17 02:05:00,
2013-02-16 21:10:00,20.8,16.2,30.03,NNE,17,0.0,1.0,82,0.00,,SKC,0.00,VWS V14.01,2013-02-17 02:10:00,
2013-02-16 21:15:00,20.7,15.8,30.03,NW,304,0.0,1.0,81,0.00,,SKC,0.00,VWS V14.01,2013-02-17 02:15:00,
2013-02-16 21:20:00,20.7,16.1,30.03,NW,308,0.0,0.0,82,0.00,,SKC,0.00,VWS V14.01,2013-02-17 02:20:00,
2013-02-16 21:25:00,20.6,16.0,30.03,NNE,19,0.0,3.0,82,0.00,,SKC,0.00,VWS V14.01,2013-02-17 02:25:00,
2013-02-16 21:30:00,20.6,15.4,30.03,NNE,18,2.0,3.0,80,0.00,,SKC,0.00,VWS V14.01,2013-02-17 02:30:00,
2013-02-16 21:35:00,20.6,15.1,30.04,NNW,338,7.0,9.0,79,0.00,,SKC,0.00,VWS V14.01,2013-02-17 02:35:00,
2013-02-16 21:40:00,20.6,15.4,30.04,NNE,13,3.0,3.0,80,0.00,,SKC,0.00,VWS V14.01,2013-02-17 02:40:00,
2013-02-16 21:45:00,20.4,15.2,30.04,North,11,0.0,3.0,80,0.00,,SKC,0.00,VWS V14.01,2013-02-17 02:45:00,
2013-02-16 21:50:00,20.5,14.7,30.04,North,10,0.0,3.0,78,0.00,,SKC,0.00,VWS V14.01,2013-02-17 02:50:00,
2013-02-16 21:55:00,20.7,14.6,30.04,North,9,4.0,4.0,77,0.00,,SKC,0.00,VWS V14.01,2013-02-17 02:55:00,
2013-02-16 22:00:00,20.9,13.9,30.04,NW,318,0.0,2.0,74,0.00,,SKC,0.00,VWS V14.01,2013-02-17 03:00:00,
2013-02-16 22:05:00,20.9,13.6,30.04,NNE,22,3.0,5.0,73,0.00,,SKC,0.00,VWS V14.01,2013-02-17 03:05:00,
2013-02-16 22:10:00,21.0,13.1,30.04,NNE,30,1.0,3.0,71,0.00,,SKC,0.00,VWS V14.01,2013-02-17 03:10:00,
2013-02-16 22:15:00,21.1,12.2,30.04,North,9,8.0,8.0,68,0.00,,SKC,0.00,VWS V14.01,2013-02-17 03:15:00,
2013-02-16 22:20:00,21.3,11.7,30.04,North,5,0.0,1.0,66,0.00,,SKC,0.00,VWS V14.01,2013-02-17 03:20:00,
2013-02-16 22:25:00,21.3,11.7,30.04,NNW,327,3.0,3.0,66,0.00,,SKC,0.00,VWS V14.01,2013-02-17 03:25:00,
2013-02-16 22:30:00,21.4,11.1,30.05,NNE,19,6.0,6.0,64,0.00,,SKC,0.00,VWS V14.01,2013-02-17 03:30:00,
2013-02-16 22:35:00,21.5,10.9,30.05,NNW,330,4.0,5.0,63,0.00,,SKC,0.00,VWS V14.01,2013-02-17 03:35:00,
2013-02-16 22:40:00,21.5,10.1,30.05,NNE,15,4.0,4.0,61,0.00,,SKC,0.00,VWS V14.01,2013-02-17 03:40:00,
2013-02-16 22:45:00,21.5,9.8,30.05,North,355,9.0,10.0,60,0.00,,SKC,0.00,VWS V14.01,2013-02-17 03:45:00,
2013-02-16 22:50:00,21.5,9.0,30.05,NW,325,7.0,7.0,58,0.00,,SKC,0.00,VWS V14.01,2013-02-17 03:50:00,
2013-02-16 22:55:00,21.6,9.5,30.05,West,268,1.0,1.0,59,0.00,,SKC,0.00,VWS V14.01,2013-02-17 03:55:00,
2013-02-16 23:00:00,21.5,9.0,30.05,North,355,5.0,8.0,58,0.00,,SKC,0.00,VWS V14.01,2013-02-17 04:00:00,
2013-02-16 23:05:00,21.4,8.9,30.05,NW,318,5.0,5.0,58,0.00,,SKC,0.00,VWS V14.01,2013-02-17 04:05:00,
2013-02-16 23:10:00,21.4,8.1,30.05,NW,322,6.0,8.0,56,0.00,,SKC,0.00,VWS V14.01,2013-02-17 04:10:00,
2013-02-16 23:15:00,21.4,8.1,30.05,North,351,3.0,7.0,56,0.00,,SKC,0.00,VWS V14.01,2013-02-17 04:15:00,
2013-02-16 23:20:00,21.3,7.3,30.05,NNE,22,2.0,3.0,54,0.00,,SKC,0.00,VWS V14.01,2013-02-17 04:20:00,
2013-02-16 23:25:00,21.3,8.1,30.05,NNW,338,0.0,5.0,56,0.00,,SKC,0.00,VWS V14.01,2013-02-17 04:25:00,
2013-02-16 23:30:00,21.3,7.7,30.05,North,5,1.0,3.0,55,0.00,,SKC,0.00,VWS V14.01,2013-02-17 04:30:00,
2013-02-16 23:34:00,21.2,7.2,30.05,WNW,300,4.0,5.0,54,0.00,,SKC,0.00,VWS V14.01,2013-02-17 04:34:00,
2013-02-16 23:39:00,21.2,6.3,30.05,NNE,23,1.0,1.0,52,0.00,,SKC,0.00,VWS V14.01,2013-02-17 04:39:00,
2013-02-16 23:44:00,21.1,6.7,30.05,NE,34,0.0,3.0,53,0.00,,SKC,0.00,VWS V14.01,2013-02-17 04:44:00,
2013-02-16 23:49:00,21.0,6.2,30.05,West,272,3.0,5.0,52,0.00,,SKC,0.00,VWS V14.01,2013-02-17 04:49:00,
2013-02-16 23:54:00,21.0,6.2,30.05,North,360,0.0,1.0,52,0.00,,SKC,0.00,VWS V14.01,2013-02-17 04:54:00,
2013-02-16 23:59:00,21.0,6.2,30.05,NNE,22,0.0,2.0,52,0.00,,SKC,0.00,VWS V14.01,2013-02-17 04:59:00,